Time;durP1;ratioP1;P1;durP2;ratioP2;P2;SDS_P1;SDS_P2;PMS_P1;PMS_P2;Temp;Humidity;BMP_temperature;BMP_pressure;BME280_temperature;BME280_humidity;BME280_pressure;Samples;Min_cycle;Max_cycle;Signal;HPM_P1;HPM_P2
2022/04/03 04:02:21;;;;;;;8.38;4.05;;;0.80;99.90;;;;;;5195745;22;20087;-83
2022/04/03 04:04:47;;;;;;;9.60;4.57;;;0.80;99.90;;;;;;5055680;28;20045;-83
2022/04/03 04:07:13;;;;;;;11.20;4.57;;;0.70;99.90;;;;;;5056196;28;20500;-84
2022/04/03 04:09:39;;;;;;;7.53;3.45;;;0.70;99.90;;;;;;5055289;28;20083;-82
2022/04/03 04:12:06;;;;;;;5.72;3.55;;;0.70;99.90;;;;;;5055568;28;20519;-84
2022/04/03 04:14:32;;;;;;;6.68;3.80;;;0.60;99.90;;;;;;5057319;28;20067;-85
2022/04/03 04:16:57;;;;;;;6.45;3.60;;;0.60;99.90;;;;;;5056162;28;20049;-84
2022/04/03 04:19:24;;;;;;;9.20;3.33;;;0.60;99.90;;;;;;5039381;28;20037;-83
2022/04/03 04:21:51;;;;;;;11.77;3.67;;;0.60;99.90;;;;;;5055612;28;20384;-82
2022/04/03 04:24:16;;;;;;;7.80;3.75;;;0.60;99.90;;;;;;5055941;28;20477;-83
2022/04/03 04:26:42;;;;;;;7.35;3.35;;;0.60;99.90;;;;;;5055992;28;20047;-83
2022/04/03 04:29:07;;;;;;;7.32;3.67;;;0.50;99.90;;;;;;5039329;28;20083;-82
2022/04/03 04:31:33;;;;;;;5.50;3.65;;;0.50;99.90;;;;;;5057379;28;20120;-82
2022/04/03 04:33:58;;;;;;;5.47;2.97;;;0.50;99.90;;;;;;5056902;28;20037;-84
2022/04/03 04:36:25;;;;;;;6.47;3.55;;;0.50;99.90;;;;;;5054999;28;20045;-82
2022/04/03 04:38:51;;;;;;;5.43;3.28;;;0.50;99.90;;;;;;5055632;28;20047;-83
2022/04/03 04:41:17;;;;;;;10.95;4.40;;;0.50;99.90;;;;;;5055878;28;20345;-83
2022/04/03 04:43:43;;;;;;;7.63;3.72;;;0.50;99.90;;;;;;5055544;28;20558;-84
2022/04/03 04:46:09;;;;;;;6.60;3.72;;;0.40;99.90;;;;;;5056850;28;20080;-84
2022/04/03 04:48:34;;;;;;;9.38;3.40;;;0.40;99.90;;;;;;5055798;28;20049;-84
2022/04/03 04:51:01;;;;;;;6.18;3.72;;;0.40;99.90;;;;;;5038521;28;20041;-84
2022/04/03 04:53:26;;;;;;;9.35;3.45;;;0.40;99.90;;;;;;5055387;28;20041;-83
2022/04/03 04:55:52;;;;;;;5.93;3.60;;;0.30;99.90;;;;;;5055102;28;20041;-83
2022/04/03 04:58:18;;;;;;;5.55;3.40;;;0.30;99.90;;;;;;5039272;28;20535;-83
2022/04/03 05:00:43;;;;;;;6.53;3.55;;;0.30;99.90;;;;;;5054117;28;20041;-84
2022/04/03 05:03:10;;;;;;;5.43;3.58;;;0.30;99.90;;;;;;5055233;28;20122;-84
2022/04/03 05:05:36;;;;;;;6.63;4.38;;;0.30;99.90;;;;;;5054976;28;20496;-84
2022/04/03 05:08:02;;;;;;;7.50;4.50;;;0.30;99.90;;;;;;5055348;28;20432;-84
2022/04/03 05:10:30;;;;;;;5.53;3.42;;;0.30;99.90;;;;;;5038129;28;20056;-83
2022/04/03 05:12:56;;;;;;;7.47;4.07;;;0.30;99.90;;;;;;5054952;28;20052;-83
2022/04/03 05:15:22;;;;;;;6.38;3.50;;;0.30;99.90;;;;;;5054781;28;20371;-84
2022/04/03 05:17:48;;;;;;;5.47;3.33;;;0.30;99.90;;;;;;5055670;28;20044;-84
2022/04/03 05:20:14;;;;;;;7.97;3.75;;;0.30;99.90;;;;;;5056020;28;20047;-83
2022/04/03 05:22:41;;;;;;;6.78;3.92;;;0.30;99.90;;;;;;5054531;28;20098;-84
2022/04/03 05:25:10;;;;;;;6.18;3.88;;;0.30;99.90;;;;;;5054830;28;20039;-84
2022/04/03 05:27:35;;;;;;;15.45;4.47;;;0.20;99.90;;;;;;5054521;28;20098;-84
2022/04/03 05:30:03;;;;;;;8.15;4.30;;;0.20;99.90;;;;;;5054748;28;20120;-84
2022/04/03 05:32:31;;;;;;;8.77;4.47;;;0.20;99.90;;;;;;5054776;28;20489;-84
2022/04/03 05:34:57;;;;;;;10.10;4.35;;;0.20;99.90;;;;;;5038030;28;20045;-84
2022/04/03 05:37:25;;;;;;;10.10;3.65;;;0.30;99.90;;;;;;5055224;28;20132;-84
2022/04/03 05:39:52;;;;;;;7.78;3.95;;;0.30;99.90;;;;;;5057055;28;20037;-84
2022/04/03 05:42:21;;;;;;;8.82;4.20;;;0.30;99.90;;;;;;5054112;28;20037;-84
2022/04/03 05:44:47;;;;;;;7.70;3.60;;;0.30;99.90;;;;;;5054695;28;20036;-84
2022/04/03 05:47:13;;;;;;;7.38;4.28;;;0.30;99.90;;;;;;5038403;28;20033;-84
2022/04/03 05:49:39;;;;;;;6.85;3.90;;;0.40;99.90;;;;;;5054376;28;20503;-84
2022/04/03 05:52:05;;;;;;;6.75;3.80;;;0.40;99.90;;;;;;5058665;28;20075;-82
2022/04/03 05:54:31;;;;;;;6.38;3.50;;;0.40;99.90;;;;;;5067060;28;20037;-84
2022/04/03 05:56:56;;;;;;;7.57;3.67;;;0.50;99.90;;;;;;5053589;28;20040;-83
2022/04/03 05:59:22;;;;;;;9.10;3.40;;;0.50;99.90;;;;;;5069483;28;20044;-83
2022/04/03 06:01:48;;;;;;;4.93;3.17;;;0.60;99.90;;;;;;5066019;28;20033;-84
2022/04/03 06:04:14;;;;;;;6.63;3.53;;;0.70;99.90;;;;;;5044881;28;20442;-83
2022/04/03 06:06:40;;;;;;;4.80;3.00;;;0.70;99.90;;;;;;5059381;28;20515;-84
2022/04/03 06:09:06;;;;;;;7.13;3.22;;;0.80;99.90;;;;;;5057770;28;20048;-84
2022/04/03 06:11:31;;;;;;;6.30;3.20;;;0.80;99.90;;;;;;5054960;28;20052;-83
2022/04/03 06:13:57;;;;;;;4.72;2.78;;;0.90;99.90;;;;;;5054279;28;20045;-83
2022/04/03 06:16:22;;;;;;;5.47;3.25;;;0.90;99.90;;;;;;5054336;28;20083;-84
2022/04/03 06:18:48;;;;;;;4.45;2.45;;;1.00;99.90;;;;;;5055714;28;20460;-84
2022/04/03 06:21:14;;;;;;;5.10;2.60;;;1.00;99.90;;;;;;5054086;28;20041;-81
2022/04/03 06:23:39;;;;;;;6.53;2.80;;;1.10;99.90;;;;;;5059490;28;20076;-81
2022/04/03 06:26:05;;;;;;;7.45;3.17;;;1.10;99.90;;;;;;5042500;28;20412;-82
2022/04/03 06:28:30;;;;;;;5.20;2.65;;;1.20;99.90;;;;;;5059639;28;20041;-80
2022/04/03 06:30:57;;;;;;;6.50;2.72;;;1.20;99.90;;;;;;5061646;28;20443;-82
2022/04/03 06:33:23;;;;;;;6.70;2.60;;;1.30;99.90;;;;;;5061277;28;20041;-82
2022/04/03 06:35:49;;;;;;;3.88;2.30;;;1.30;99.90;;;;;;5043621;28;20067;-82
2022/04/03 06:38:18;;;;;;;5.45;2.78;;;1.30;99.90;;;;;;5061513;28;20045;-85
2022/04/03 06:40:52;;;;;;;6.78;3.05;;;1.30;99.90;;;;;;5060965;28;20099;-83
2022/04/03 06:43:38;;;;;;;6.40;2.80;;;1.30;99.90;;;;;;5062766;28;20077;-82
2022/04/03 06:46:04;;;;;;;;;;;1.30;99.90;;;;;;5063410;28;20076;-82
2022/04/03 06:48:29;;;;;;;;;;;1.30;99.90;;;;;;5065161;28;19924;-83
2022/04/03 06:50:55;;;;;;;4.63;2.70;;;1.40;99.90;;;;;;5064734;28;20319;-81
2022/04/03 06:53:21;;;;;;;4.93;2.58;;;1.40;99.90;;;;;;5061786;28;20079;-82
2022/04/03 06:55:47;;;;;;;9.25;2.63;;;1.50;99.90;;;;;;5058385;28;20040;-83
2022/04/03 06:58:12;;;;;;;6.82;2.38;;;1.60;99.90;;;;;;5057252;28;20037;-83
2022/04/03 07:00:40;;;;;;;5.40;2.50;;;1.60;99.90;;;;;;5041159;28;20040;-84
2022/04/03 07:03:05;;;;;;;5.25;2.30;;;1.70;99.90;;;;;;5057503;28;20107;-84
2022/04/03 07:05:31;;;;;;;5.28;2.00;;;1.80;99.90;;;;;;5057426;28;20040;-85
2022/04/03 07:07:57;;;;;;;6.05;2.50;;;1.80;99.90;;;;;;5058496;28;20041;-84
2022/04/03 07:10:24;;;;;;;6.22;2.53;;;1.90;99.90;;;;;;5058148;28;20041;-84
2022/04/03 07:12:50;;;;;;;4.78;2.17;;;2.00;99.90;;;;;;5057399;28;20064;-84
2022/04/03 07:15:16;;;;;;;5.82;2.42;;;2.10;99.90;;;;;;5058710;28;20069;-84
2022/04/03 07:17:43;;;;;;;5.60;2.30;;;2.20;99.90;;;;;;5057106;28;20041;-84
2022/04/03 07:20:12;;;;;;;3.25;1.85;;;2.30;99.90;;;;;;5057905;28;20037;-83
2022/04/03 07:22:38;;;;;;;3.50;1.90;;;2.40;99.90;;;;;;5056597;28;20049;-83
2022/04/03 07:25:04;;;;;;;3.55;1.73;;;2.60;99.90;;;;;;5056560;28;20056;-83
2022/04/03 07:27:30;;;;;;;6.13;1.40;;;2.80;99.90;;;;;;5055696;28;20049;-83
2022/04/03 07:29:56;;;;;;;7.57;1.92;;;3.00;99.90;;;;;;5055935;28;20053;-85
2022/04/03 07:32:22;;;;;;;3.40;1.48;;;3.20;99.90;;;;;;5056960;28;20052;-84
2022/04/03 07:34:48;;;;;;;3.95;1.30;;;3.30;99.90;;;;;;5056837;28;20045;-84
2022/04/03 07:37:14;;;;;;;4.82;1.20;;;3.50;99.90;;;;;;5057186;28;20124;-84
2022/04/03 07:39:40;;;;;;;6.60;1.20;;;3.70;99.90;;;;;;5055941;28;20068;-84
2022/04/03 07:42:06;;;;;;;6.20;1.25;;;3.80;99.90;;;;;;5056447;28;20492;-83
2022/04/03 07:44:31;;;;;;;2.65;1.10;;;4.00;99.90;;;;;;5056183;28;20041;-84
2022/04/03 07:46:57;;;;;;;2.22;1.10;;;4.00;99.90;;;;;;5039107;28;20036;-84
2022/04/03 07:49:23;;;;;;;5.70;1.20;;;4.10;99.90;;;;;;5056470;28;20451;-84
2022/04/03 07:51:49;;;;;;;6.55;1.27;;;4.20;99.90;;;;;;5056336;28;20033;-83
2022/04/03 07:54:14;;;;;;;2.40;1.10;;;4.30;99.90;;;;;;5056231;28;20040;-84
2022/04/03 07:56:40;;;;;;;2.42;1.10;;;4.40;99.90;;;;;;5039154;28;20047;-82
2022/04/03 07:59:06;;;;;;;4.95;1.55;;;4.50;99.90;;;;;;5055406;28;20083;-83
2022/04/03 08:01:33;;;;;;;5.68;1.52;;;4.50;99.90;;;;;;5055804;28;20036;-83
2022/04/03 08:03:59;;;;;;;4.10;1.00;;;4.50;99.90;;;;;;5055971;28;20071;-83
2022/04/03 08:06:25;;;;;;;4.03;0.90;;;4.70;99.90;;;;;;5057766;28;20036;-84
2022/04/03 08:08:50;;;;;;;5.03;1.13;;;4.80;99.90;;;;;;5056058;28;20051;-84
2022/04/03 08:11:16;;;;;;;7.15;1.10;;;4.90;99.90;;;;;;5054935;28;20041;-84
2022/04/03 08:13:43;;;;;;;5.30;1.02;;;5.00;99.90;;;;;;5039494;28;20047;-84
2022/04/03 08:16:08;;;;;;;5.22;1.42;;;5.10;99.90;;;;;;5055312;28;20045;-84
2022/04/03 08:18:34;;;;;;;3.60;1.55;;;5.20;99.90;;;;;;5055445;28;20041;-84
2022/04/03 08:20:59;;;;;;;4.13;0.90;;;5.40;99.90;;;;;;5055351;28;20045;-84
2022/04/03 08:23:25;;;;;;;5.18;1.45;;;5.60;99.90;;;;;;5056646;28;20045;-84
2022/04/03 08:25:51;;;;;;;2.10;1.08;;;5.80;99.90;;;;;;5038755;28;20065;-83
2022/04/03 08:28:17;;;;;;;2.80;1.00;;;6.00;99.90;;;;;;5038825;28;20045;-83
2022/04/03 08:30:42;;;;;;;2.65;1.10;;;6.00;99.90;;;;;;5055311;28;20041;-84
2022/04/03 08:33:11;;;;;;;5.00;0.98;;;6.00;99.90;;;;;;5038647;28;20554;-83
2022/04/03 08:35:38;;;;;;;2.97;1.05;;;6.00;99.90;;;;;;5055905;28;20115;-83
2022/04/03 08:38:05;;;;;;;3.67;0.98;;;6.00;99.90;;;;;;5055263;28;20076;-83
2022/04/03 08:40:31;;;;;;;2.40;1.02;;;6.00;99.90;;;;;;5056667;28;20389;-84
2022/04/03 08:42:57;;;;;;;3.22;0.82;;;5.90;99.90;;;;;;5055167;28;20119;-83
2022/04/03 08:45:24;;;;;;;2.28;1.05;;;5.90;99.90;;;;;;5054694;28;20124;-79
2022/04/03 08:47:52;;;;;;;3.42;1.30;;;5.90;99.90;;;;;;5054023;28;20497;-85
2022/04/03 08:50:20;;;;;;;2.60;0.90;;;6.00;99.90;;;;;;5054570;28;20067;-83
2022/04/03 08:52:48;;;;;;;5.82;1.75;;;6.00;99.90;;;;;;5053852;28;20505;-83
2022/04/03 08:55:16;;;;;;;2.88;0.95;;;6.00;99.90;;;;;;5054726;28;20432;-85
2022/04/03 08:57:42;;;;;;;4.93;1.02;;;5.90;99.90;;;;;;5054887;28;20047;-84
2022/04/03 09:00:09;;;;;;;1.85;0.60;;;6.00;99.90;;;;;;5038340;28;20083;-84
2022/04/03 09:02:35;;;;;;;1.50;0.60;;;6.00;99.90;;;;;;5054546;28;20041;-83
2022/04/03 09:05:01;;;;;;;2.85;0.90;;;6.10;99.90;;;;;;5053891;28;20041;-83
2022/04/03 09:07:26;;;;;;;2.58;0.63;;;6.20;99.90;;;;;;5037501;28;20489;-85
2022/04/03 09:09:56;;;;;;;0.85;0.50;;;6.30;99.90;;;;;;5055668;28;20037;-84
2022/04/03 09:12:22;;;;;;;1.45;0.70;;;6.50;99.90;;;;;;5054443;28;20048;-83
2022/04/03 09:14:51;;;;;;;1.45;0.73;;;6.60;99.90;;;;;;5054535;28;20370;-85
2022/04/03 09:17:42;;;;;;;2.97;0.73;;;6.70;99.90;;;;;;5037876;28;20385;-85
2022/04/03 09:20:13;;;;;;;2.65;0.80;;;6.90;99.90;;;;;;5055870;28;20492;-84
2022/04/03 09:22:42;;;;;;;1.20;0.70;;;6.90;99.90;;;;;;5054173;28;20048;-84
2022/04/03 09:25:30;;;;;;;1.30;0.68;;;6.80;99.90;;;;;;5053907;28;20041;-83
2022/04/03 09:28:01;;;;;;;1.42;0.70;;;6.70;99.90;;;;;;5054344;28;20055;-85
2022/04/03 09:30:36;;;;;;;1.33;0.60;;;6.70;99.90;;;;;;5054250;28;20053;-82
2022/04/03 09:33:05;;;;;;;1.88;0.70;;;6.60;99.90;;;;;;5053976;28;20045;-84
2022/04/03 09:35:51;;;;;;;1.30;0.60;;;6.70;99.90;;;;;;5037761;28;20139;-83
2022/04/03 09:38:17;;;;;;;3.95;1.02;;;6.80;99.90;;;;;;5053803;28;20029;-85
2022/04/03 09:40:48;;;;;;;1.77;0.63;;;7.10;99.90;;;;;;5053659;28;20484;-84
2022/04/03 09:43:23;;;;;;;3.22;0.60;;;7.40;99.90;;;;;;5053598;28;20124;-82
2022/04/03 09:45:56;;;;;;;;;;;7.80;99.90;;;;;;5054016;28;20044;-84
2022/04/03 09:48:26;;;;;;;2.13;0.68;;;8.10;99.90;;;;;;5054571;28;19962;-83
2022/04/03 09:51:03;;;;;;;2.67;0.85;;;8.40;99.90;;;;;;5056769;28;20056;-83
2022/04/03 09:53:52;;;;;;;1.15;0.55;;;8.60;99.90;;;;;;5057205;28;20123;-84
2022/04/03 09:56:20;;;;;;;2.50;0.60;;;9.00;99.90;;;;;;5066364;28;20048;-84
2022/04/03 09:58:49;;;;;;;1.50;0.60;;;8.80;99.90;;;;;;5070209;28;20037;-83
2022/04/03 10:01:30;;;;;;;0.82;0.60;;;8.40;99.90;;;;;;5068573;28;20037;-85
2022/04/03 10:03:57;;;;;;;2.90;0.70;;;8.10;99.90;;;;;;5068008;28;20049;-84
2022/04/03 10:06:24;;;;;;;3.67;0.75;;;8.00;99.90;;;;;;5062661;28;20040;-83
2022/04/03 10:08:50;;;;;;;1.77;0.70;;;8.30;99.90;;;;;;5059398;28;20045;-84
2022/04/03 10:11:16;;;;;;;3.10;1.35;;;8.70;99.90;;;;;;5057230;28;20433;-84
2022/04/03 10:13:45;;;;;;;1.33;0.70;;;8.70;99.90;;;;;;5060661;28;20041;-83
2022/04/03 10:16:12;;;;;;;1.50;0.73;;;8.50;99.90;;;;;;5059283;28;20120;-84
2022/04/03 10:18:44;;;;;;;2.20;0.80;;;8.20;99.90;;;;;;5058901;28;20175;-85
2022/04/03 10:21:19;;;;;;;2.50;0.82;;;8.00;99.90;;;;;;5058374;28;20091;-82
2022/04/03 10:23:46;;;;;;;3.60;0.90;;;8.20;99.90;;;;;;5057509;28;20040;-82
2022/04/03 10:26:17;;;;;;;2.80;0.80;;;8.40;99.90;;;;;;5057515;28;20041;-83
2022/04/03 10:28:52;;;;;;;1.25;0.63;;;8.50;99.90;;;;;;5039812;28;20048;-82
2022/04/03 10:31:18;;;;;;;0.95;0.60;;;8.70;99.90;;;;;;5074023;28;20041;-83
2022/04/03 10:33:48;;;;;;;3.03;0.85;;;8.90;99.90;;;;;;5058369;28;20070;-82
2022/04/03 10:36:16;;;;;;;1.80;0.63;;;9.00;99.90;;;;;;5057979;28;20091;-86
2022/04/03 10:38:44;;;;;;;3.15;0.93;;;9.20;99.90;;;;;;5041650;28;20132;-84
2022/04/03 10:41:27;;;;;;;2.58;0.70;;;9.20;99.90;;;;;;5041238;28;20037;-84
2022/04/03 10:44:10;;;;;;;2.00;0.60;;;9.40;99.90;;;;;;5040785;28;20041;-84
2022/04/03 10:47:01;;;;;;;3.88;0.68;;;9.60;99.90;;;;;;5057509;28;20080;-83
2022/04/03 10:49:40;;;;;;;3.55;0.60;;;9.90;99.90;;;;;;5056315;28;20048;-83
2022/04/03 10:52:21;;;;;;;2.67;0.95;;;10.10;99.90;;;;;;5057322;28;20045;-84
2022/04/03 10:54:57;;;;;;;2.58;0.70;;;10.10;99.90;;;;;;5056844;28;20041;-84
2022/04/03 10:57:45;;;;;;;2.60;0.80;;;9.80;99.90;;;;;;5056704;28;20044;-84
2022/04/03 11:00:16;;;;;;;2.20;0.60;;;9.30;99.90;;;;;;5057144;28;20033;-85
2022/04/03 11:02:51;;;;;;;2.03;0.65;;;9.00;99.90;;;;;;5040186;28;20538;-86
2022/04/03 11:05:26;;;;;;;1.25;0.50;;;9.30;99.90;;;;;;5056845;28;20067;-85
2022/04/03 11:07:54;;;;;;;2.17;0.70;;;9.40;99.90;;;;;;5040401;28;20044;-87
2022/04/03 11:10:56;;;;;;;1.42;0.70;;;9.50;99.90;;;;;;5056412;28;20048;-86
2022/04/03 11:13:23;;;;;;;0.80;0.40;;;9.70;99.90;;;;;;5056606;28;20131;-86
2022/04/03 11:15:54;;;;;;;0.80;0.40;;;9.70;99.90;;;;;;5055416;28;20045;-87
2022/04/03 11:18:33;;;;;;;1.60;0.65;;;9.50;99.90;;;;;;5057284;28;20420;-83
2022/04/03 11:21:14;;;;;;;2.72;0.60;;;9.20;99.90;;;;;;5056307;28;20098;-86
2022/04/03 11:24:00;;;;;;;2.60;0.80;;;8.90;99.90;;;;;;5056920;28;20083;-86
2022/04/03 11:26:26;;;;;;;6.30;1.40;;;8.70;99.90;;;;;;5057063;28;20400;-84
2022/04/03 11:28:52;;;;;;;3.03;0.75;;;8.60;99.90;;;;;;5057914;28;20091;-83
2022/04/03 11:31:18;;;;;;;3.50;0.95;;;8.50;99.90;;;;;;5058253;28;20045;-82
2022/04/03 11:33:46;;;;;;;2.47;0.80;;;8.50;99.90;;;;;;5056543;28;20071;-83
2022/04/03 11:36:14;;;;;;;3.72;1.02;;;8.70;99.90;;;;;;5056630;28;20053;-82
2022/04/03 11:38:48;;;;;;;1.92;1.25;;;8.90;99.90;;;;;;5056850;28;20119;-82
2022/04/03 11:41:14;;;;;;;3.15;1.00;;;9.30;99.90;;;;;;5055800;28;20101;-84
2022/04/03 11:43:41;;;;;;;2.85;1.42;;;9.20;99.90;;;;;;5056073;28;20488;-84
2022/04/03 11:46:08;;;;;;;3.45;0.90;;;9.20;99.90;;;;;;5038613;28;20138;-85
2022/04/03 11:48:47;;;;;;;3.05;1.10;;;8.90;99.90;;;;;;5056045;28;20040;-84
2022/04/03 11:51:15;;;;;;;2.63;0.98;;;8.80;99.90;;;;;;5055263;28;20049;-83
2022/04/03 11:53:44;;;;;;;1.92;0.73;;;8.60;99.90;;;;;;5055427;28;20092;-84
2022/04/03 11:56:14;;;;;;;1.98;0.60;;;8.40;99.90;;;;;;5055807;28;20072;-84
2022/04/03 11:58:48;;;;;;;2.55;0.80;;;8.40;99.90;;;;;;5056192;28;20080;-85
2022/04/03 12:01:25;;;;;;;1.83;0.60;;;8.40;99.90;;;;;;5039089;28;20044;-85
2022/04/03 12:04:01;;;;;;;2.05;1.20;;;8.40;99.90;;;;;;5055905;28;20098;-84
2022/04/03 12:06:30;;;;;;;1.95;0.90;;;8.60;99.90;;;;;;5056022;28;20045;-85
2022/04/03 12:08:55;;;;;;;3.65;2.58;;;8.80;99.90;;;;;;5055859;28;20399;-86
2022/04/03 12:11:27;;;;;;;4.35;1.40;;;9.40;99.90;;;;;;5057669;28;20095;-87
2022/04/03 12:14:00;;;;;;;2.88;1.00;;;9.70;99.90;;;;;;5039543;28;20115;-87
2022/04/03 12:16:30;;;;;;;3.25;1.33;;;9.60;99.90;;;;;;5056235;28;20056;-88
2022/04/03 12:19:09;;;;;;;3.65;1.55;;;9.60;99.90;;;;;;5056541;28;20095;-88
2022/04/03 12:21:54;;;;;;;4.28;1.65;;;9.50;99.90;;;;;;5057180;28;20120;-85
2022/04/03 12:24:27;;;;;;;7.70;2.95;;;9.40;99.90;;;;;;5057603;28;20036;-87
2022/04/03 12:27:06;;;;;;;5.13;2.40;;;9.40;99.90;;;;;;5057345;28;20147;-87
2022/04/03 12:29:35;;;;;;;3.25;1.50;;;9.60;99.90;;;;;;5057655;28;20067;-87
2022/04/03 12:32:10;;;;;;;3.65;1.35;;;9.70;99.90;;;;;;5055869;28;20087;-87
2022/04/03 12:34:38;;;;;;;5.70;2.20;;;9.70;99.90;;;;;;5057236;28;20037;-88
2022/04/03 12:37:05;;;;;;;6.15;1.45;;;9.60;99.90;;;;;;5055953;28;20272;-88
2022/04/03 12:39:41;;;;;;;3.03;1.30;;;9.50;99.90;;;;;;5057155;28;20539;-87
2022/04/03 12:42:22;;;;;;;2.53;1.33;;;9.40;99.90;;;;;;5055910;28;20053;-87
2022/04/03 12:44:51;;;;;;;7.95;1.80;;;9.00;99.90;;;;;;5055609;28;20041;-87
2022/04/03 12:47:19;;;;;;;4.43;1.10;;;8.70;99.90;;;;;;5055912;28;20040;-89
2022/04/03 12:50:10;;;;;;;2.08;1.08;;;8.50;99.90;;;;;;5055734;28;20072;-88
2022/04/03 12:52:41;;;;;;;3.20;1.23;;;8.40;99.90;;;;;;5055783;28;20056;-87
2022/04/03 12:55:26;;;;;;;4.10;1.00;;;8.30;99.90;;;;;;5055433;28;20045;-87
2022/04/03 13:00:55;;;;;;;3.72;1.63;;;8.10;99.90;;;;;;5055972;28;20056;-89
2022/04/03 13:03:38;;;;;;;2.65;1.08;;;8.20;99.90;;;;;;5039050;28;20041;-88
2022/04/03 13:06:26;;;;;;;4.90;1.10;;;8.20;99.90;;;;;;5055613;28;20063;-87
2022/04/03 13:08:56;;;;;;;3.60;0.95;;;8.30;99.90;;;;;;5038821;28;20480;-87
2022/04/03 13:11:43;;;;;;;2.53;1.10;;;8.30;99.90;;;;;;5038860;28;20087;-87
2022/04/03 13:14:25;;;;;;;3.22;1.42;;;8.20;99.90;;;;;;5055037;28;20037;-88
2022/04/03 13:17:08;;;;;;;2.75;1.30;;;8.00;99.90;;;;;;5056560;28;20056;-87
2022/04/03 13:19:38;;;;;;;2.70;1.30;;;7.90;99.90;;;;;;5058513;28;20037;-87
2022/04/03 13:22:05;;;;;;;4.13;1.50;;;7.70;99.90;;;;;;5054940;28;20040;-87
2022/04/03 13:24:32;;;;;;;4.80;1.90;;;7.70;99.90;;;;;;5039244;28;20369;-88
2022/04/03 13:27:00;;;;;;;3.83;1.00;;;7.70;99.90;;;;;;5055073;28;20037;-86
2022/04/03 13:29:26;;;;;;;5.22;1.17;;;7.80;99.90;;;;;;5054982;28;20045;-87
2022/04/03 13:31:53;;;;;;;2.45;1.05;;;7.90;99.90;;;;;;5038400;28;20033;-87
2022/04/03 13:34:19;;;;;;;2.42;1.00;;;8.50;99.90;;;;;;5038588;28;20095;-88
2022/04/03 13:36:44;;;;;;;3.38;1.10;;;9.00;99.90;;;;;;5054552;28;20144;-87
2022/04/03 13:39:11;;;;;;;2.47;1.00;;;9.50;99.90;;;;;;5054385;28;20033;-87
2022/04/03 13:41:39;;;;;;;3.75;1.10;;;9.90;99.90;;;;;;5056582;28;20032;-88
2022/04/03 13:44:08;;;;;;;1.63;0.70;;;9.90;99.90;;;;;;5054406;28;20495;-87
2022/04/03 13:46:34;;;;;;;1.55;0.60;;;10.10;99.90;;;;;;5054340;28;20389;-87
2022/04/03 13:49:00;;;;;;;1.30;0.57;;;10.40;99.90;;;;;;5055199;28;20052;-86
2022/04/03 13:51:26;;;;;;;1.42;0.70;;;10.00;99.90;;;;;;5055077;28;20481;-88
2022/04/03 13:53:52;;;;;;;0.77;0.50;;;9.90;99.90;;;;;;5055309;28;20079;-88
2022/04/03 13:56:19;;;;;;;1.70;0.65;;;10.20;99.90;;;;;;5054989;28;20124;-87
2022/04/03 13:58:45;;;;;;;1.00;0.40;;;10.50;99.90;;;;;;5054853;28;20045;-87
2022/04/03 14:01:11;;;;;;;2.10;0.50;;;10.80;99.90;;;;;;5056185;28;20447;-87
2022/04/03 14:03:37;;;;;;;1.70;1.02;;;11.20;99.90;;;;;;5054598;28;20033;-86
2022/04/03 14:06:03;;;;;;;1.45;0.63;;;11.50;99.90;;;;;;5056006;28;20044;-86
2022/04/03 14:08:29;;;;;;;1.35;0.63;;;11.50;99.90;;;;;;5054501;28;20059;-86
2022/04/03 14:10:56;;;;;;;2.47;0.88;;;11.00;99.90;;;;;;5054375;28;20052;-87
2022/04/03 14:13:26;;;;;;;2.13;0.90;;;10.90;99.90;;;;;;5053660;28;20059;-87
2022/04/03 14:15:53;;;;;;;3.13;1.00;;;11.10;99.10;;;;;;5054706;28;20125;-87
2022/04/03 14:18:20;;;;;;;2.40;1.02;;;10.90;98.90;;;;;;5054280;28;20041;-86
2022/04/03 14:20:46;;;;;;;3.65;1.60;;;10.90;98.90;;;;;;5037448;28;20032;-86
2022/04/03 14:23:12;;;;;;;2.40;0.90;;;10.90;98.30;;;;;;5054413;28;20048;-83
2022/04/03 14:25:38;;;;;;;2.30;0.90;;;10.60;98.00;;;;;;5054292;28;20400;-85
2022/04/03 14:28:04;;;;;;;4.57;0.90;;;10.40;97.60;;;;;;5055573;28;20040;-86
2022/04/03 14:30:30;;;;;;;3.22;0.90;;;10.60;99.00;;;;;;5053395;28;20043;-85
2022/04/03 14:32:57;;;;;;;2.25;0.90;;;10.90;99.90;;;;;;5054496;28;20451;-86
2022/04/03 14:35:24;;;;;;;2.88;0.70;;;11.00;99.90;;;;;;5055208;28;20074;-87
2022/04/03 14:37:50;;;;;;;2.13;0.70;;;11.20;99.90;;;;;;5057357;28;20136;-86
2022/04/03 14:40:16;;;;;;;2.10;0.57;;;11.40;98.50;;;;;;5064525;28;20041;-87
2022/04/03 14:42:42;;;;;;;3.00;0.60;;;11.20;95.30;;;;;;5068952;28;20041;-86
2022/04/03 14:45:08;;;;;;;3.53;0.90;;;11.20;95.10;;;;;;5057697;28;20029;-86
2022/04/03 14:47:34;;;;;;;2.45;0.80;;;11.20;93.90;;;;;;5065771;28;20117;-87
2022/04/03 14:50:04;;;;;;;2.17;0.90;;;11.10;95.10;;;;;;5061018;28;20072;-87
2022/04/03 14:52:30;;;;;;;1.63;0.60;;;11.10;94.30;;;;;;5044107;28;20037;-86
2022/04/03 14:54:57;;;;;;;2.33;0.80;;;11.00;94.40;;;;;;5058918;28;20044;-86
2022/04/03 14:57:24;;;;;;;3.28;1.02;;;10.90;94.10;;;;;;5058099;28;20059;-86
2022/04/03 14:59:49;;;;;;;1.83;0.60;;;11.00;92.70;;;;;;5057387;28;20033;-85
2022/04/03 15:02:15;;;;;;;1.25;0.60;;;10.90;91.80;;;;;;5057385;28;20048;-86
2022/04/03 15:04:41;;;;;;;2.20;0.70;;;11.00;91.60;;;;;;5040200;28;20397;-86
2022/04/03 15:07:10;;;;;;;2.42;1.00;;;10.80;91.40;;;;;;5058913;28;20134;-87
2022/04/03 15:09:40;;;;;;;5.18;1.45;;;10.90;92.20;;;;;;5057583;28;20041;-86
2022/04/03 15:12:07;;;;;;;3.03;1.45;;;10.50;94.90;;;;;;5056933;28;20099;-86
2022/04/03 15:14:33;;;;;;;2.33;0.88;;;10.00;97.00;;;;;;5056867;28;20079;-85
2022/04/03 15:17:00;;;;;;;2.45;0.80;;;9.20;99.90;;;;;;5057293;28;20496;-86
2022/04/03 15:19:26;;;;;;;2.10;0.85;;;9.00;99.90;;;;;;5057302;28;20067;-86
2022/04/03 15:21:53;;;;;;;2.63;1.15;;;8.80;99.90;;;;;;5057186;28;20033;-86
2022/04/03 15:24:20;;;;;;;3.13;1.08;;;8.60;99.90;;;;;;5057403;28;20127;-87
2022/04/03 15:26:48;;;;;;;3.40;1.42;;;8.40;99.90;;;;;;5056768;28;20060;-87
2022/04/03 15:29:15;;;;;;;3.13;0.95;;;8.20;99.90;;;;;;5057767;28;20131;-87
2022/04/03 15:31:41;;;;;;;3.65;1.08;;;8.20;99.90;;;;;;5058201;28;20116;-87
2022/04/03 15:34:07;;;;;;;2.55;0.80;;;8.20;99.90;;;;;;5056612;28;20064;-86
2022/04/03 15:36:32;;;;;;;2.83;0.90;;;8.10;99.90;;;;;;5057886;28;20069;-85
2022/04/03 15:39:05;;;;;;;2.35;0.98;;;8.20;99.90;;;;;;5042074;28;20041;-86
2022/04/03 15:41:34;;;;;;;2.55;0.90;;;8.20;99.90;;;;;;5057127;28;20045;-86
2022/04/03 15:44:00;;;;;;;3.80;0.98;;;8.10;99.90;;;;;;5056857;28;20041;-87
2022/04/03 15:46:26;;;;;;;3.25;0.80;;;8.20;99.90;;;;;;5056908;28;20091;-86
2022/04/03 15:48:52;;;;;;;3.20;1.05;;;8.10;99.90;;;;;;5056844;28;20135;-87
2022/04/03 15:51:22;;;;;;;2.42;0.82;;;8.00;99.90;;;;;;5056408;28;20511;-84
2022/04/03 15:53:52;;;;;;;2.53;1.25;;;7.90;99.90;;;;;;5055781;28;20045;-87
2022/04/03 15:56:21;;;;;;;3.58;1.38;;;7.80;99.90;;;;;;5056034;28;20051;-84
2022/04/03 15:58:47;;;;;;;2.25;0.93;;;7.80;99.90;;;;;;5053925;28;20060;-84
2022/04/03 16:01:15;;;;;;;8.65;3.78;;;7.80;99.90;;;;;;5054566;28;20069;-87
2022/04/03 16:03:41;;;;;;;5.85;2.72;;;7.90;99.90;;;;;;5028094;28;20037;-85
2022/04/03 16:06:06;;;;;;;4.00;1.20;;;8.00;99.90;;;;;;5044630;28;20041;-88
2022/04/03 16:08:32;;;;;;;4.18;1.35;;;8.00;99.90;;;;;;5055860;28;20423;-86
2022/04/03 16:10:58;;;;;;;4.90;1.38;;;8.00;99.90;;;;;;5055352;28;20488;-86
2022/04/03 16:13:23;;;;;;;3.67;1.30;;;8.00;99.90;;;;;;5056958;28;20052;-87
2022/04/03 16:15:49;;;;;;;3.60;1.20;;;7.90;99.90;;;;;;5057214;28;20041;-87
2022/04/03 16:18:16;;;;;;;2.97;1.40;;;7.90;99.90;;;;;;5057088;28;20554;-87
2022/04/03 16:20:42;;;;;;;2.55;1.40;;;7.90;99.90;;;;;;5057090;28;20033;-85
2022/04/03 16:23:07;;;;;;;3.53;1.33;;;7.70;99.90;;;;;;5055124;28;20458;-85
2022/04/03 16:25:33;;;;;;;2.33;1.27;;;7.70;99.90;;;;;;5055711;28;20045;-85
2022/04/03 16:27:59;;;;;;;2.28;1.30;;;7.80;99.90;;;;;;5039115;28;20377;-84
2022/04/03 16:30:24;;;;;;;4.35;1.40;;;7.80;99.90;;;;;;5056316;28;20484;-85
2022/04/03 16:32:50;;;;;;;2.90;1.00;;;7.80;99.90;;;;;;5056323;28;20044;-89
2022/04/03 16:35:16;;;;;;;3.92;1.52;;;7.70;99.90;;;;;;5057085;28;20044;-85
2022/04/03 16:37:42;;;;;;;6.72;1.38;;;7.70;99.90;;;;;;5056234;28;20139;-85
2022/04/03 16:40:09;;;;;;;2.50;0.88;;;7.60;99.90;;;;;;5056108;28;20041;-85
2022/04/03 16:42:36;;;;;;;3.50;1.00;;;7.80;99.90;;;;;;5056571;28;20112;-85
2022/04/03 16:45:04;;;;;;;3.13;1.00;;;8.00;99.90;;;;;;5054796;28;20492;-85
2022/04/03 16:47:31;;;;;;;4.47;0.90;;;8.20;99.90;;;;;;5054511;28;20040;-84
2022/04/03 16:49:56;;;;;;;6.50;1.40;;;8.20;99.90;;;;;;5055008;28;20025;-82
2022/04/03 16:52:22;;;;;;;4.70;1.30;;;8.00;99.90;;;;;;5054463;28;20515;-86
2022/04/03 16:54:47;;;;;;;4.32;1.30;;;7.80;99.90;;;;;;5054926;28;20080;-85
2022/04/03 16:57:13;;;;;;;2.42;1.08;;;7.60;99.90;;;;;;5053719;28;20560;-86
2022/04/03 16:59:39;;;;;;;3.00;1.40;;;7.40;99.90;;;;;;5054274;28;20036;-85
2022/04/03 17:02:04;;;;;;;5.25;2.25;;;7.30;99.90;;;;;;5053815;28;20427;-84
2022/04/03 17:04:30;;;;;;;6.18;2.40;;;7.30;99.90;;;;;;5053501;28;20395;-84
2022/04/03 17:06:56;;;;;;;5.00;1.60;;;7.40;99.90;;;;;;5053603;28;20041;-85